Main page
METAR-TAF:

METAR-TAF

Airports :

Branson Airport

Branson, Missouri, United States

latitude: 36-31-55N, longitude: 093-12-02W, elevation: 1302 ft

Current weather observation

The report was made 46 minutes ago, at 04:15 UTC
Wind 5 mph from the Southeast
Temperature 73°F
Humidity 83%
Pressure 30.26 in. Hg
Visibility: 10 miles
Clear sky

METAR: KBBG 200415Z AUTO 14004KT 10SM CLR 23/20 A3026 RMK AO2 TSNO

Time: 00:01 (05:01 UTC)

Forecast

The report was made 5 hours and 41 minutes ago, at 23:20 UTC
Forecast valid from 20 at 00 UTC to 20 at 24 UTC
Wind 6 mph from the East/Southeast
Visibility: 6 miles
Scattered clouds at a height of 5000 ft
From 20 at 0700 UTC
Wind 3 mph from the East/Southeast
Visibility: 6 miles
Broken clouds at a height of 25000 ft

TAF: KBBG 192320Z 2000/2024 12005KT P6SM SCT050 FM200700 11003KT P6SM BKN250

Weather observations and forecasts of more than 4000 airports (METAR and TAF reports).

The available stations are represented by yellow and red dots on the map.

Hover mouse over dot to see the name of the station.

Then click to see weather observations and forecasts.

To change the map : click on the green buttons with a black cross to zoom in, on the green button with a dash to zoom out, or on the green arrows for adjacent maps.


METAR-TAF: